sensor_id;sensor_type;location;lat;lon;timestamp;temperature;humidity
53748;DHT22;39655;53.210;5.768;2022-09-16T00:00:42;11.60;90.00
53748;DHT22;39655;53.210;5.768;2022-09-16T00:03:09;11.60;90.00
53748;DHT22;39655;53.210;5.768;2022-09-16T00:05:43;11.60;90.00
53748;DHT22;39655;53.210;5.768;2022-09-16T00:08:09;11.60;90.00
53748;DHT22;39655;53.210;5.768;2022-09-16T00:10:35;11.60;90.20
53748;DHT22;39655;53.210;5.768;2022-09-16T00:13:01;11.60;89.90
53748;DHT22;39655;53.210;5.768;2022-09-16T00:15:27;11.60;89.80
53748;DHT22;39655;53.210;5.768;2022-09-16T00:17:53;11.70;90.40
53748;DHT22;39655;53.210;5.768;2022-09-16T00:20:18;11.70;90.90
53748;DHT22;39655;53.210;5.768;2022-09-16T00:22:44;11.70;91.20
53748;DHT22;39655;53.210;5.768;2022-09-16T00:25:10;11.80;91.30
53748;DHT22;39655;53.210;5.768;2022-09-16T00:27:35;11.80;91.30
53748;DHT22;39655;53.210;5.768;2022-09-16T00:30:01;11.80;91.40
53748;DHT22;39655;53.210;5.768;2022-09-16T00:32:27;11.80;91.20
53748;DHT22;39655;53.210;5.768;2022-09-16T00:34:52;11.80;91.20
53748;DHT22;39655;53.210;5.768;2022-09-16T00:37:18;11.80;91.60
53748;DHT22;39655;53.210;5.768;2022-09-16T00:39:46;11.80;91.50
53748;DHT22;39655;53.210;5.768;2022-09-16T00:42:12;11.80;91.60
53748;DHT22;39655;53.210;5.768;2022-09-16T00:47:34;11.70;91.70
53748;DHT22;39655;53.210;5.768;2022-09-16T00:52:47;11.70;92.10
53748;DHT22;39655;53.210;5.768;2022-09-16T00:55:19;11.70;92.30
53748;DHT22;39655;53.210;5.768;2022-09-16T00:57:46;11.70;92.40
53748;DHT22;39655;53.210;5.768;2022-09-16T01:00:12;11.70;92.50
53748;DHT22;39655;53.210;5.768;2022-09-16T01:02:42;11.70;92.70
53748;DHT22;39655;53.210;5.768;2022-09-16T01:05:17;11.60;92.70
53748;DHT22;39655;53.210;5.768;2022-09-16T01:07:48;11.70;93.00
53748;DHT22;39655;53.210;5.768;2022-09-16T01:10:33;11.60;93.10
53748;DHT22;39655;53.210;5.768;2022-09-16T01:13:02;11.60;93.10
53748;DHT22;39655;53.210;5.768;2022-09-16T01:18:18;11.60;93.00
53748;DHT22;39655;53.210;5.768;2022-09-16T01:21:24;11.60;93.00
53748;DHT22;39655;53.210;5.768;2022-09-16T01:29:52;11.60;91.20
53748;DHT22;39655;53.210;5.768;2022-09-16T01:32:36;11.60;90.80
53748;DHT22;39655;53.210;5.768;2022-09-16T01:35:36;11.60;90.50
53748;DHT22;39655;53.210;5.768;2022-09-16T01:38:18;11.60;90.20
53748;DHT22;39655;53.210;5.768;2022-09-16T01:46:18;11.70;88.70
53748;DHT22;39655;53.210;5.768;2022-09-16T01:54:12;11.60;87.90
53748;DHT22;39655;53.210;5.768;2022-09-16T01:56:51;11.60;87.90
53748;DHT22;39655;53.210;5.768;2022-09-16T01:59:30;11.50;88.10
53748;DHT22;39655;53.210;5.768;2022-09-16T02:02:12;11.50;87.30
53748;DHT22;39655;53.210;5.768;2022-09-16T02:04:45;11.50;86.50
53748;DHT22;39655;53.210;5.768;2022-09-16T02:07:15;11.60;87.30
53748;DHT22;39655;53.210;5.768;2022-09-16T02:09:47;11.50;87.60
53748;DHT22;39655;53.210;5.768;2022-09-16T02:12:21;11.50;87.90
53748;DHT22;39655;53.210;5.768;2022-09-16T02:14:48;11.50;88.20
53748;DHT22;39655;53.210;5.768;2022-09-16T02:17:21;11.50;88.40
53748;DHT22;39655;53.210;5.768;2022-09-16T02:19:56;11.50;88.70
53748;DHT22;39655;53.210;5.768;2022-09-16T02:22:35;11.50;88.80
53748;DHT22;39655;53.210;5.768;2022-09-16T02:25:05;11.50;89.10
53748;DHT22;39655;53.210;5.768;2022-09-16T02:27:34;11.50;89.20
53748;DHT22;39655;53.210;5.768;2022-09-16T02:30:05;11.50;89.30
53748;DHT22;39655;53.210;5.768;2022-09-16T02:32:35;11.50;89.80
53748;DHT22;39655;53.210;5.768;2022-09-16T02:35:02;11.50;90.00
53748;DHT22;39655;53.210;5.768;2022-09-16T02:37:46;11.50;90.40
53748;DHT22;39655;53.210;5.768;2022-09-16T02:40:19;11.40;90.30
53748;DHT22;39655;53.210;5.768;2022-09-16T02:42:47;11.40;89.30
53748;DHT22;39655;53.210;5.768;2022-09-16T02:45:13;11.30;88.90
53748;DHT22;39655;53.210;5.768;2022-09-16T02:50:26;11.20;89.20
53748;DHT22;39655;53.210;5.768;2022-09-16T02:55:57;11.10;89.70
53748;DHT22;39655;53.210;5.768;2022-09-16T02:58:23;11.10;89.20
53748;DHT22;39655;53.210;5.768;2022-09-16T03:00:52;11.00;89.00
53748;DHT22;39655;53.210;5.768;2022-09-16T03:03:19;11.10;88.60
53748;DHT22;39655;53.210;5.768;2022-09-16T03:08:33;11.10;88.60
53748;DHT22;39655;53.210;5.768;2022-09-16T03:16:32;11.20;88.70
53748;DHT22;39655;53.210;5.768;2022-09-16T03:19:03;11.30;88.50
53748;DHT22;39655;53.210;5.768;2022-09-16T03:21:41;11.30;88.40
53748;DHT22;39655;53.210;5.768;2022-09-16T03:27:00;11.30;88.40
53748;DHT22;39655;53.210;5.768;2022-09-16T03:29:37;11.30;88.70
53748;DHT22;39655;53.210;5.768;2022-09-16T03:32:09;11.20;88.80
53748;DHT22;39655;53.210;5.768;2022-09-16T03:37:47;11.20;88.80
53748;DHT22;39655;53.210;5.768;2022-09-16T03:40:16;11.20;88.20
53748;DHT22;39655;53.210;5.768;2022-09-16T03:42:43;11.20;88.40
53748;DHT22;39655;53.210;5.768;2022-09-16T03:45:16;11.20;87.60
53748;DHT22;39655;53.210;5.768;2022-09-16T03:47:43;11.30;86.10
53748;DHT22;39655;53.210;5.768;2022-09-16T03:50:10;11.40;85.70
53748;DHT22;39655;53.210;5.768;2022-09-16T03:52:35;11.40;86.00
53748;DHT22;39655;53.210;5.768;2022-09-16T03:55:01;11.40;86.10
53748;DHT22;39655;53.210;5.768;2022-09-16T03:57:26;11.40;85.90
53748;DHT22;39655;53.210;5.768;2022-09-16T03:59:54;11.30;84.70
53748;DHT22;39655;53.210;5.768;2022-09-16T04:02:20;11.30;83.50
53748;DHT22;39655;53.210;5.768;2022-09-16T04:04:45;11.30;83.30
53748;DHT22;39655;53.210;5.768;2022-09-16T04:07:11;11.30;82.10
53748;DHT22;39655;53.210;5.768;2022-09-16T04:09:37;11.30;81.10
53748;DHT22;39655;53.210;5.768;2022-09-16T04:12:03;11.20;80.60
53748;DHT22;39655;53.210;5.768;2022-09-16T04:14:29;11.20;79.80
53748;DHT22;39655;53.210;5.768;2022-09-16T04:16:55;11.20;78.90
53748;DHT22;39655;53.210;5.768;2022-09-16T04:19:21;11.20;78.50
53748;DHT22;39655;53.210;5.768;2022-09-16T04:21:46;11.20;78.40
53748;DHT22;39655;53.210;5.768;2022-09-16T04:24:12;11.20;78.90
53748;DHT22;39655;53.210;5.768;2022-09-16T04:26:38;11.20;77.80
53748;DHT22;39655;53.210;5.768;2022-09-16T04:29:03;11.20;77.70
53748;DHT22;39655;53.210;5.768;2022-09-16T04:31:29;11.30;77.40
53748;DHT22;39655;53.210;5.768;2022-09-16T04:33:54;11.30;76.20
53748;DHT22;39655;53.210;5.768;2022-09-16T04:36:20;11.30;78.10
53748;DHT22;39655;53.210;5.768;2022-09-16T04:38:47;11.30;77.20
53748;DHT22;39655;53.210;5.768;2022-09-16T04:41:16;11.30;78.10
53748;DHT22;39655;53.210;5.768;2022-09-16T04:43:42;11.30;78.80
53748;DHT22;39655;53.210;5.768;2022-09-16T04:46:08;11.40;78.60
53748;DHT22;39655;53.210;5.768;2022-09-16T04:48:34;11.40;79.30
53748;DHT22;39655;53.210;5.768;2022-09-16T04:51:08;11.50;79.10
53748;DHT22;39655;53.210;5.768;2022-09-16T04:53:35;11.50;79.90
53748;DHT22;39655;53.210;5.768;2022-09-16T04:56:09;11.50;80.00
53748;DHT22;39655;53.210;5.768;2022-09-16T04:58:37;11.60;80.20
53748;DHT22;39655;53.210;5.768;2022-09-16T05:01:08;11.60;81.10
53748;DHT22;39655;53.210;5.768;2022-09-16T05:03:44;11.70;81.40
53748;DHT22;39655;53.210;5.768;2022-09-16T05:06:11;11.90;81.50
53748;DHT22;39655;53.210;5.768;2022-09-16T05:08:38;11.90;82.30
53748;DHT22;39655;53.210;5.768;2022-09-16T05:11:09;11.90;81.40
53748;DHT22;39655;53.210;5.768;2022-09-16T05:13:35;11.80;81.90
53748;DHT22;39655;53.210;5.768;2022-09-16T05:16:06;11.70;82.60
53748;DHT22;39655;53.210;5.768;2022-09-16T05:18:33;11.60;82.60
53748;DHT22;39655;53.210;5.768;2022-09-16T05:21:00;11.60;82.90
53748;DHT22;39655;53.210;5.768;2022-09-16T05:23:27;11.50;82.90
53748;DHT22;39655;53.210;5.768;2022-09-16T05:25:53;11.50;82.50
53748;DHT22;39655;53.210;5.768;2022-09-16T05:28:19;11.50;82.40
53748;DHT22;39655;53.210;5.768;2022-09-16T05:30:45;11.50;82.10
53748;DHT22;39655;53.210;5.768;2022-09-16T05:33:10;11.60;81.90
53748;DHT22;39655;53.210;5.768;2022-09-16T05:35:36;11.60;81.80
53748;DHT22;39655;53.210;5.768;2022-09-16T05:38:02;11.60;81.80
53748;DHT22;39655;53.210;5.768;2022-09-16T05:40:27;11.60;81.40
53748;DHT22;39655;53.210;5.768;2022-09-16T05:42:53;11.70;81.10
53748;DHT22;39655;53.210;5.768;2022-09-16T05:45:20;11.70;81.10
53748;DHT22;39655;53.210;5.768;2022-09-16T05:47:49;11.70;81.30
53748;DHT22;39655;53.210;5.768;2022-09-16T05:50:15;11.70;80.50
53748;DHT22;39655;53.210;5.768;2022-09-16T05:52:41;11.80;79.90
53748;DHT22;39655;53.210;5.768;2022-09-16T05:55:07;12.00;80.10
53748;DHT22;39655;53.210;5.768;2022-09-16T05:57:33;12.10;80.20
53748;DHT22;39655;53.210;5.768;2022-09-16T05:59:59;12.10;80.40
53748;DHT22;39655;53.210;5.768;2022-09-16T06:02:24;12.10;81.00
53748;DHT22;39655;53.210;5.768;2022-09-16T06:04:50;12.10;80.70
53748;DHT22;39655;53.210;5.768;2022-09-16T06:07:15;12.00;81.50
53748;DHT22;39655;53.210;5.768;2022-09-16T06:09:42;12.00;81.40
53748;DHT22;39655;53.210;5.768;2022-09-16T06:12:09;11.90;81.40
53748;DHT22;39655;53.210;5.768;2022-09-16T06:14:35;12.00;81.20
53748;DHT22;39655;53.210;5.768;2022-09-16T06:17:01;12.10;80.50
53748;DHT22;39655;53.210;5.768;2022-09-16T06:19:27;12.10;80.40
53748;DHT22;39655;53.210;5.768;2022-09-16T06:21:52;12.20;80.60
53748;DHT22;39655;53.210;5.768;2022-09-16T06:24:19;12.20;80.70
53748;DHT22;39655;53.210;5.768;2022-09-16T06:26:45;12.30;80.80
53748;DHT22;39655;53.210;5.768;2022-09-16T06:29:12;12.40;80.80
53748;DHT22;39655;53.210;5.768;2022-09-16T06:31:39;12.50;80.80
53748;DHT22;39655;53.210;5.768;2022-09-16T06:34:06;12.60;81.10
53748;DHT22;39655;53.210;5.768;2022-09-16T06:36:35;12.70;81.00
53748;DHT22;39655;53.210;5.768;2022-09-16T06:39:02;12.70;81.30
53748;DHT22;39655;53.210;5.768;2022-09-16T06:41:30;12.70;81.80
53748;DHT22;39655;53.210;5.768;2022-09-16T06:43:56;12.70;81.70
53748;DHT22;39655;53.210;5.768;2022-09-16T06:46:24;12.80;80.90
53748;DHT22;39655;53.210;5.768;2022-09-16T06:48:51;12.80;80.20
53748;DHT22;39655;53.210;5.768;2022-09-16T06:51:20;12.80;79.20
53748;DHT22;39655;53.210;5.768;2022-09-16T06:53:47;12.90;78.00
53748;DHT22;39655;53.210;5.768;2022-09-16T06:56:15;12.80;77.30
53748;DHT22;39655;53.210;5.768;2022-09-16T06:58:43;12.80;76.90
53748;DHT22;39655;53.210;5.768;2022-09-16T07:01:14;12.90;77.10
53748;DHT22;39655;53.210;5.768;2022-09-16T07:03:42;12.90;76.60
53748;DHT22;39655;53.210;5.768;2022-09-16T07:06:09;13.00;77.00
53748;DHT22;39655;53.210;5.768;2022-09-16T07:08:36;13.10;77.60
53748;DHT22;39655;53.210;5.768;2022-09-16T07:11:21;13.20;77.30
53748;DHT22;39655;53.210;5.768;2022-09-16T07:13:48;13.40;77.50
53748;DHT22;39655;53.210;5.768;2022-09-16T07:16:18;13.40;77.10
53748;DHT22;39655;53.210;5.768;2022-09-16T07:18:44;13.60;76.70
53748;DHT22;39655;53.210;5.768;2022-09-16T07:21:17;13.70;75.50
53748;DHT22;39655;53.210;5.768;2022-09-16T07:23:43;13.90;75.60
53748;DHT22;39655;53.210;5.768;2022-09-16T07:26:14;14.00;74.60
53748;DHT22;39655;53.210;5.768;2022-09-16T07:28:41;14.00;74.70
53748;DHT22;39655;53.210;5.768;2022-09-16T07:31:09;14.00;76.20
53748;DHT22;39655;53.210;5.768;2022-09-16T07:33:38;13.80;75.40
53748;DHT22;39655;53.210;5.768;2022-09-16T07:36:05;13.70;76.10
53748;DHT22;39655;53.210;5.768;2022-09-16T07:38:32;13.50;75.60
53748;DHT22;39655;53.210;5.768;2022-09-16T07:41:17;13.40;76.10
53748;DHT22;39655;53.210;5.768;2022-09-16T07:43:44;13.30;77.00
53748;DHT22;39655;53.210;5.768;2022-09-16T07:46:12;13.30;77.60
53748;DHT22;39655;53.210;5.768;2022-09-16T07:48:38;13.30;76.20
53748;DHT22;39655;53.210;5.768;2022-09-16T07:51:07;13.20;75.90
53748;DHT22;39655;53.210;5.768;2022-09-16T07:53:34;13.30;74.70
53748;DHT22;39655;53.210;5.768;2022-09-16T07:56:05;13.30;74.10
53748;DHT22;39655;53.210;5.768;2022-09-16T07:58:31;13.40;72.00
53748;DHT22;39655;53.210;5.768;2022-09-16T08:00:59;13.50;71.40
53748;DHT22;39655;53.210;5.768;2022-09-16T08:03:27;13.60;69.10
53748;DHT22;39655;53.210;5.768;2022-09-16T08:05:59;13.70;67.60
53748;DHT22;39655;53.210;5.768;2022-09-16T08:14:32;14.10;65.90
53748;DHT22;39655;53.210;5.768;2022-09-16T08:17:02;14.20;63.50
53748;DHT22;39655;53.210;5.768;2022-09-16T08:19:53;14.30;63.50
53748;DHT22;39655;53.210;5.768;2022-09-16T08:26:05;14.50;63.50
53748;DHT22;39655;53.210;5.768;2022-09-16T08:28:32;14.60;65.20
53748;DHT22;39655;53.210;5.768;2022-09-16T08:30:59;14.60;65.50
53748;DHT22;39655;53.210;5.768;2022-09-16T08:33:26;14.70;66.30
53748;DHT22;39655;53.210;5.768;2022-09-16T08:36:00;14.70;67.10
53748;DHT22;39655;53.210;5.768;2022-09-16T08:38:26;14.80;65.80
53748;DHT22;39655;53.210;5.768;2022-09-16T08:40:57;14.80;67.10
53748;DHT22;39655;53.210;5.768;2022-09-16T08:43:41;14.90;66.30
53748;DHT22;39655;53.210;5.768;2022-09-16T08:51:57;15.10;61.30
53748;DHT22;39655;53.210;5.768;2022-09-16T08:54:31;15.10;57.10
53748;DHT22;39655;53.210;5.768;2022-09-16T08:57:02;15.20;57.20
53748;DHT22;39655;53.210;5.768;2022-09-16T08:59:33;15.20;57.00
53748;DHT22;39655;53.210;5.768;2022-09-16T09:02:35;15.40;59.00
53748;DHT22;39655;53.210;5.768;2022-09-16T09:13:57;15.60;63.20
53748;DHT22;39655;53.210;5.768;2022-09-16T09:16:54;15.60;63.40
53748;DHT22;39655;53.210;5.768;2022-09-16T09:30:22;14.90;64.30
53748;DHT22;39655;53.210;5.768;2022-09-16T09:40:52;15.40;62.50
53748;DHT22;39655;53.210;5.768;2022-09-16T09:43:33;15.60;59.40
53748;DHT22;39655;53.210;5.768;2022-09-16T09:46:02;15.70;60.00
53748;DHT22;39655;53.210;5.768;2022-09-16T09:48:37;15.80;61.10
53748;DHT22;39655;53.210;5.768;2022-09-16T09:51:25;15.80;60.80
53748;DHT22;39655;53.210;5.768;2022-09-16T09:53:58;15.80;60.90
53748;DHT22;39655;53.210;5.768;2022-09-16T09:56:32;15.90;61.10
53748;DHT22;39655;53.210;5.768;2022-09-16T09:59:39;16.00;60.50
53748;DHT22;39655;53.210;5.768;2022-09-16T10:02:18;15.90;62.00
53748;DHT22;39655;53.210;5.768;2022-09-16T10:04:44;15.90;63.30
53748;DHT22;39655;53.210;5.768;2022-09-16T10:07:20;15.70;64.30
53748;DHT22;39655;53.210;5.768;2022-09-16T10:10:13;15.60;63.70
53748;DHT22;39655;53.210;5.768;2022-09-16T10:12:39;15.60;64.30
53748;DHT22;39655;53.210;5.768;2022-09-16T10:15:05;15.70;60.80
53748;DHT22;39655;53.210;5.768;2022-09-16T10:17:32;15.80;62.40
53748;DHT22;39655;53.210;5.768;2022-09-16T10:20:54;16.00;62.80
53748;DHT22;39655;53.210;5.768;2022-09-16T10:23:13;16.10;62.20
53748;DHT22;39655;53.210;5.768;2022-09-16T10:25:40;16.10;63.00
53748;DHT22;39655;53.210;5.768;2022-09-16T10:28:26;16.20;63.10
53748;DHT22;39655;53.210;5.768;2022-09-16T10:30:55;16.20;61.50
53748;DHT22;39655;53.210;5.768;2022-09-16T10:33:36;16.20;63.30
53748;DHT22;39655;53.210;5.768;2022-09-16T10:36:06;16.50;62.90
53748;DHT22;39655;53.210;5.768;2022-09-16T10:38:45;16.60;63.30
53748;DHT22;39655;53.210;5.768;2022-09-16T10:41:40;16.20;64.90
53748;DHT22;39655;53.210;5.768;2022-09-16T10:44:13;15.90;64.70
53748;DHT22;39655;53.210;5.768;2022-09-16T10:46:52;15.90;64.80
53748;DHT22;39655;53.210;5.768;2022-09-16T10:49:22;15.90;63.00
53748;DHT22;39655;53.210;5.768;2022-09-16T10:51:49;16.10;63.70
53748;DHT22;39655;53.210;5.768;2022-09-16T10:54:26;16.30;61.70
53748;DHT22;39655;53.210;5.768;2022-09-16T10:56:53;16.40;58.40
53748;DHT22;39655;53.210;5.768;2022-09-16T10:59:19;16.60;58.00
53748;DHT22;39655;53.210;5.768;2022-09-16T11:02:16;16.70;58.40
53748;DHT22;39655;53.210;5.768;2022-09-16T11:04:59;16.90;58.50
53748;DHT22;39655;53.210;5.768;2022-09-16T11:10:45;16.80;58.80
53748;DHT22;39655;53.210;5.768;2022-09-16T11:24:10;16.50;54.00
53748;DHT22;39655;53.210;5.768;2022-09-16T11:27:24;16.80;55.40
53748;DHT22;39655;53.210;5.768;2022-09-16T11:30:19;16.50;56.50
53748;DHT22;39655;53.210;5.768;2022-09-16T11:33:08;16.50;57.50
53748;DHT22;39655;53.210;5.768;2022-09-16T11:41:34;16.80;56.70
53748;DHT22;39655;53.210;5.768;2022-09-16T11:44:29;16.90;56.50
53748;DHT22;39655;53.210;5.768;2022-09-16T11:49:57;17.00;59.50
53748;DHT22;39655;53.210;5.768;2022-09-16T11:52:52;16.80;61.40
53748;DHT22;39655;53.210;5.768;2022-09-16T11:58:32;16.70;55.60
53748;DHT22;39655;53.210;5.768;2022-09-16T12:01:08;16.60;54.80
53748;DHT22;39655;53.210;5.768;2022-09-16T12:03:50;16.60;56.40
53748;DHT22;39655;53.210;5.768;2022-09-16T12:06:23;16.70;57.30
53748;DHT22;39655;53.210;5.768;2022-09-16T12:08:59;16.80;57.70
53748;DHT22;39655;53.210;5.768;2022-09-16T12:11:54;16.70;55.50
53748;DHT22;39655;53.210;5.768;2022-09-16T12:14:32;16.70;57.10
53748;DHT22;39655;53.210;5.768;2022-09-16T12:17:17;16.80;57.90
53748;DHT22;39655;53.210;5.768;2022-09-16T12:19:53;16.90;58.70
53748;DHT22;39655;53.210;5.768;2022-09-16T12:22:24;16.80;59.80
53748;DHT22;39655;53.210;5.768;2022-09-16T12:30:44;16.40;62.40
53748;DHT22;39655;53.210;5.768;2022-09-16T12:33:28;16.30;61.10
53748;DHT22;39655;53.210;5.768;2022-09-16T12:36:21;16.40;64.00
53748;DHT22;39655;53.210;5.768;2022-09-16T12:38:51;16.30;66.50
53748;DHT22;39655;53.210;5.768;2022-09-16T12:42:20;16.30;66.40
53748;DHT22;39655;53.210;5.768;2022-09-16T12:45:02;16.50;65.30
53748;DHT22;39655;53.210;5.768;2022-09-16T13:01:58;17.00;57.90
53748;DHT22;39655;53.210;5.768;2022-09-16T13:04:56;17.00;58.20
53748;DHT22;39655;53.210;5.768;2022-09-16T13:07:26;16.90;60.70
53748;DHT22;39655;53.210;5.768;2022-09-16T13:12:33;16.60;60.40
53748;DHT22;39655;53.210;5.768;2022-09-16T13:15:01;16.70;59.90
53748;DHT22;39655;53.210;5.768;2022-09-16T13:17:31;16.80;59.70
53748;DHT22;39655;53.210;5.768;2022-09-16T13:20:03;16.90;59.70
53748;DHT22;39655;53.210;5.768;2022-09-16T13:25:25;16.80;58.40
53748;DHT22;39655;53.210;5.768;2022-09-16T13:28:03;16.80;58.40
53748;DHT22;39655;53.210;5.768;2022-09-16T13:30:46;16.80;59.50
53748;DHT22;39655;53.210;5.768;2022-09-16T13:35:45;16.70;60.00
53748;DHT22;39655;53.210;5.768;2022-09-16T13:40:40;16.80;59.20
53748;DHT22;39655;53.210;5.768;2022-09-16T13:46:04;16.90;59.20
53748;DHT22;39655;53.210;5.768;2022-09-16T13:48:38;17.20;59.60
53748;DHT22;39655;53.210;5.768;2022-09-16T13:51:21;17.60;61.20
53748;DHT22;39655;53.210;5.768;2022-09-16T13:53:49;17.50;65.50
53748;DHT22;39655;53.210;5.768;2022-09-16T13:59:21;16.10;73.30
53748;DHT22;39655;53.210;5.768;2022-09-16T14:02:32;15.60;72.80
53748;DHT22;39655;53.210;5.768;2022-09-16T14:07:58;15.50;72.20
53748;DHT22;39655;53.210;5.768;2022-09-16T14:10:36;15.50;71.90
53748;DHT22;39655;53.210;5.768;2022-09-16T14:13:15;15.50;74.70
53748;DHT22;39655;53.210;5.768;2022-09-16T14:15:51;15.40;80.10
53748;DHT22;39655;53.210;5.768;2022-09-16T14:18:24;15.00;80.40
53748;DHT22;39655;53.210;5.768;2022-09-16T14:21:00;14.70;81.10
53748;DHT22;39655;53.210;5.768;2022-09-16T14:23:33;14.60;81.40
53748;DHT22;39655;53.210;5.768;2022-09-16T14:26:19;14.50;79.90
53748;DHT22;39655;53.210;5.768;2022-09-16T14:28:47;14.50;82.00
53748;DHT22;39655;53.210;5.768;2022-09-16T14:31:19;14.50;82.30
53748;DHT22;39655;53.210;5.768;2022-09-16T14:33:53;14.30;84.40
53748;DHT22;39655;53.210;5.768;2022-09-16T14:36:23;14.20;84.90
53748;DHT22;39655;53.210;5.768;2022-09-16T14:38:52;14.10;85.90
53748;DHT22;39655;53.210;5.768;2022-09-16T14:41:29;14.10;86.10
53748;DHT22;39655;53.210;5.768;2022-09-16T14:44:08;14.00;85.30
53748;DHT22;39655;53.210;5.768;2022-09-16T14:46:46;13.90;85.10
53748;DHT22;39655;53.210;5.768;2022-09-16T14:49:13;13.90;85.70
53748;DHT22;39655;53.210;5.768;2022-09-16T14:51:47;13.80;85.80
53748;DHT22;39655;53.210;5.768;2022-09-16T14:54:18;13.50;86.00
53748;DHT22;39655;53.210;5.768;2022-09-16T14:57:03;13.10;88.20
53748;DHT22;39655;53.210;5.768;2022-09-16T15:02:07;12.80;90.60
53748;DHT22;39655;53.210;5.768;2022-09-16T15:04:38;12.70;91.00
53748;DHT22;39655;53.210;5.768;2022-09-16T15:07:13;12.70;91.30
53748;DHT22;39655;53.210;5.768;2022-09-16T15:10:01;12.70;92.00
53748;DHT22;39655;53.210;5.768;2022-09-16T15:12:43;12.70;91.60
53748;DHT22;39655;53.210;5.768;2022-09-16T15:15:26;12.90;91.50
53748;DHT22;39655;53.210;5.768;2022-09-16T15:17:59;13.00;92.00
53748;DHT22;39655;53.210;5.768;2022-09-16T15:20:29;13.10;91.50
53748;DHT22;39655;53.210;5.768;2022-09-16T15:22:55;13.10;91.00
53748;DHT22;39655;53.210;5.768;2022-09-16T15:25:24;13.10;89.60
53748;DHT22;39655;53.210;5.768;2022-09-16T15:28:15;13.00;90.10
53748;DHT22;39655;53.210;5.768;2022-09-16T15:30:50;12.80;89.80
53748;DHT22;39655;53.210;5.768;2022-09-16T15:33:32;12.70;90.30
53748;DHT22;39655;53.210;5.768;2022-09-16T15:35:59;12.60;91.40
53748;DHT22;39655;53.210;5.768;2022-09-16T15:38:26;12.50;92.20
53748;DHT22;39655;53.210;5.768;2022-09-16T15:41:03;12.40;92.70
53748;DHT22;39655;53.210;5.768;2022-09-16T15:43:34;12.40;93.10
53748;DHT22;39655;53.210;5.768;2022-09-16T15:46:14;12.30;93.20
53748;DHT22;39655;53.210;5.768;2022-09-16T15:48:49;12.30;93.40
53748;DHT22;39655;53.210;5.768;2022-09-16T15:53:51;12.40;93.30
53748;DHT22;39655;53.210;5.768;2022-09-16T15:58:56;12.60;92.70
53748;DHT22;39655;53.210;5.768;2022-09-16T16:04:04;12.70;90.80
53748;DHT22;39655;53.210;5.768;2022-09-16T16:06:44;12.80;90.80
53748;DHT22;39655;53.210;5.768;2022-09-16T16:11:55;13.00;89.40
53748;DHT22;39655;53.210;5.768;2022-09-16T16:14:21;13.10;89.10
53748;DHT22;39655;53.210;5.768;2022-09-16T16:16:52;13.10;89.70
53748;DHT22;39655;53.210;5.768;2022-09-16T16:19:18;13.20;89.60
53748;DHT22;39655;53.210;5.768;2022-09-16T16:21:44;13.20;88.80
53748;DHT22;39655;53.210;5.768;2022-09-16T16:24:12;13.30;88.30
53748;DHT22;39655;53.210;5.768;2022-09-16T16:26:41;13.30;87.60
53748;DHT22;39655;53.210;5.768;2022-09-16T16:29:07;13.40;87.40
53748;DHT22;39655;53.210;5.768;2022-09-16T16:31:32;13.40;88.20
53748;DHT22;39655;53.210;5.768;2022-09-16T16:33:59;13.40;87.50
53748;DHT22;39655;53.210;5.768;2022-09-16T16:36:25;13.50;87.20
53748;DHT22;39655;53.210;5.768;2022-09-16T16:38:50;13.60;87.20
53748;DHT22;39655;53.210;5.768;2022-09-16T16:41:20;13.70;84.60
53748;DHT22;39655;53.210;5.768;2022-09-16T16:43:47;13.70;84.40
53748;DHT22;39655;53.210;5.768;2022-09-16T16:46:12;13.70;84.80
53748;DHT22;39655;53.210;5.768;2022-09-16T16:48:38;13.60;85.60
53748;DHT22;39655;53.210;5.768;2022-09-16T16:51:11;13.60;86.30
53748;DHT22;39655;53.210;5.768;2022-09-16T16:53:38;13.50;86.40
53748;DHT22;39655;53.210;5.768;2022-09-16T16:56:08;13.50;86.60
53748;DHT22;39655;53.210;5.768;2022-09-16T16:58:35;13.40;85.40
53748;DHT22;39655;53.210;5.768;2022-09-16T17:01:09;13.30;84.50
53748;DHT22;39655;53.210;5.768;2022-09-16T17:03:36;13.20;84.70
53748;DHT22;39655;53.210;5.768;2022-09-16T17:06:02;13.20;85.60
53748;DHT22;39655;53.210;5.768;2022-09-16T17:08:28;13.20;85.10
53748;DHT22;39655;53.210;5.768;2022-09-16T17:11:11;13.20;86.00
53748;DHT22;39655;53.210;5.768;2022-09-16T17:13:39;13.20;86.50
53748;DHT22;39655;53.210;5.768;2022-09-16T17:16:06;13.20;87.30
53748;DHT22;39655;53.210;5.768;2022-09-16T17:18:36;13.20;86.00
53748;DHT22;39655;53.210;5.768;2022-09-16T17:21:10;13.10;85.70
53748;DHT22;39655;53.210;5.768;2022-09-16T17:23:37;13.00;85.80
53748;DHT22;39655;53.210;5.768;2022-09-16T17:26:04;12.90;86.60
53748;DHT22;39655;53.210;5.768;2022-09-16T17:28:30;12.90;87.60
53748;DHT22;39655;53.210;5.768;2022-09-16T17:30:56;13.00;88.10
53748;DHT22;39655;53.210;5.768;2022-09-16T17:33:22;12.90;88.30
53748;DHT22;39655;53.210;5.768;2022-09-16T17:36:00;13.00;86.70
53748;DHT22;39655;53.210;5.768;2022-09-16T17:38:26;13.00;84.40
53748;DHT22;39655;53.210;5.768;2022-09-16T17:40:58;13.10;83.30
53748;DHT22;39655;53.210;5.768;2022-09-16T17:43:25;13.10;83.50
53748;DHT22;39655;53.210;5.768;2022-09-16T17:45:50;13.10;83.60
53748;DHT22;39655;53.210;5.768;2022-09-16T17:48:17;13.10;84.20
53748;DHT22;39655;53.210;5.768;2022-09-16T17:50:43;13.00;85.30
53748;DHT22;39655;53.210;5.768;2022-09-16T17:53:09;12.80;85.70
53748;DHT22;39655;53.210;5.768;2022-09-16T17:55:34;12.60;86.30
53748;DHT22;39655;53.210;5.768;2022-09-16T17:58:00;12.50;86.60
53748;DHT22;39655;53.210;5.768;2022-09-16T18:00:25;12.50;87.10
53748;DHT22;39655;53.210;5.768;2022-09-16T18:02:51;12.50;88.20
53748;DHT22;39655;53.210;5.768;2022-09-16T18:05:17;12.60;88.70
53748;DHT22;39655;53.210;5.768;2022-09-16T18:07:44;12.60;88.60
53748;DHT22;39655;53.210;5.768;2022-09-16T18:10:11;12.60;87.40
53748;DHT22;39655;53.210;5.768;2022-09-16T18:12:36;12.60;87.70
53748;DHT22;39655;53.210;5.768;2022-09-16T18:15:02;12.60;89.20
53748;DHT22;39655;53.210;5.768;2022-09-16T18:17:28;12.50;90.10
53748;DHT22;39655;53.210;5.768;2022-09-16T18:19:53;12.40;90.90
53748;DHT22;39655;53.210;5.768;2022-09-16T18:22:19;12.40;91.50
53748;DHT22;39655;53.210;5.768;2022-09-16T18:24:45;12.30;91.50
53748;DHT22;39655;53.210;5.768;2022-09-16T18:27:11;12.20;90.70
53748;DHT22;39655;53.210;5.768;2022-09-16T18:29:37;12.20;90.30
53748;DHT22;39655;53.210;5.768;2022-09-16T18:32:04;12.20;90.40
53748;DHT22;39655;53.210;5.768;2022-09-16T18:34:30;12.30;90.70
53748;DHT22;39655;53.210;5.768;2022-09-16T18:36:56;12.30;90.60
53748;DHT22;39655;53.210;5.768;2022-09-16T18:39:21;12.30;90.70
53748;DHT22;39655;53.210;5.768;2022-09-16T18:41:47;12.40;90.50
53748;DHT22;39655;53.210;5.768;2022-09-16T18:44:18;12.50;89.90